Stations météo

réclame
Mon MeteoGroup
Hohenpeißenberg, Allemagne (10962): Température de l'air & dewpoint: 15.01.2019 17:00:00 - 21.01.2019 17:00:00 (CET)Hohenpeißenberg, Allemagne (10962): Température de l'air 5cm & Température de l'air -5cm: 15.01.2019 17:00:00 - 21.01.2019 17:00:00 (CET)Hohenpeißenberg, Allemagne (10962): Température de l'air -20cm & Température de l'air -100cm: 15.01.2019 17:00:00 - 21.01.2019 17:00:00 (CET)Hohenpeißenberg, Allemagne (10962): Vitesse du vent & gusts: 15.01.2019 17:00:00 - 21.01.2019 17:00:00 (CET)Hohenpeißenberg, Allemagne (10962): Direction du vent: 15.01.2019 17:00:00 - 21.01.2019 17:00:00 (CET)Hohenpeißenberg, Allemagne (10962): visibility: 15.01.2019 17:00:00 - 21.01.2019 17:00:00 (CET)Hohenpeißenberg, Allemagne (10962): Ensoleillement: 15.01.2019 17:00:00 - 21.01.2019 17:00:00 (CET)Hohenpeißenberg, Allemagne (10962): Quantités de précipitations: 15.01.2019 17:00:00 - 21.01.2019 17:00:00 (CET)
Date & Time tt [°C] td [°C] tt 5cm [°C] tt -5cm [°C] tt -20cm [°C] tt -100cm [°C] ff [km/h] ff [knt] fx [km/h] fx [knt] dd vv [km] sd [min] rr [mm]
21.01.2019 17:00:00 -4,9 -5,6 -5,0 0,3 0,8 3,8 0 0 9 5 N 2,4 0 0,0
21.01.2019 16:00:00 -4,7 -5,6 -4,4 0,3 0,8 3,8 6 4 9 5 N 1,9 0 0,0
21.01.2019 15:00:00 -4,4 -5,7 -4,2 0,3 0,8 3,8 4 2 7 4 NNE 2,0 0 0,0
21.01.2019 14:00:00 -3,6 -5,7 -2,8 0,3 0,8 3,8 0 0 7 4 N 4,3 0 0,0
21.01.2019 13:00:00 -3,8 -7,0 -3,4 0,3 0,8 3,8 2 1 6 3 SSW 27 0 0,0
21.01.2019 12:00:00 -4,2 -5,8 -3,5 0,3 0,8 3,8 0 0 6 3 N 4,0 0 0,0
21.01.2019 11:00:00 -5,3 -6,2 -4,8 0,3 0,8 3,8 4 2 10 5 NNE 3,3 0 0,0
21.01.2019 10:00:00 -5,4 -6,0 -5,3 0,3 0,8 3,8 2 1 9 5 ESE 1,4 0 0,0
21.01.2019 09:00:00 -5,1 -7,3 -5,2 0,3 0,8 3,8 7 4 15 8 ESE 21 0 0,0
21.01.2019 08:00:00 -4,6 -8,0 -4,7 0,3 0,8 3,8 11 6 14 8 E 35 0 0,0
21.01.2019 07:00:00 -4,6 -7,5 -4,8 0,3 0,8 3,8 10 6 15 8 ESE 32 0 0,0
21.01.2019 06:00:00 -5,6 -7,2 -5,6 0,3 0,8 3,8 10 5 15 8 ESE 20 0 0,0
21.01.2019 05:00:00 -5,6 -5,8 -5,7 0,3 0,8 3,8 6 3 13 7 E 0,5 0 0,0
21.01.2019 04:00:00 -4,6 -6,9 -5,0 0,3 0,8 3,9 8 5 14 8 ESE 37 0 0,0
21.01.2019 03:00:00 -4,3 -7,0 -4,9 0,3 0,8 3,9 7 4 13 7 ESE 23 0 0,0
21.01.2019 02:00:00 -3,0 -7,5 -3,5 0,3 0,8 3,9 10 5 13 7 ESE 56 0 0,0
21.01.2019 01:00:00 -3,5 -7,5 -3,9 0,3 0,8 3,9 10 6 15 8 ESE 44 0 0,0
21.01.2019 00:00:00 -3,5 -6,4 -4,0 0,3 0,8 3,9 10 5 14 8 ESE 42 0 0,0
20.01.2019 23:00:00 -3,3 -6,0 -3,5 0,3 0,8 3,9 11 6 16 9 ESE 50 0 0,0
20.01.2019 22:00:00 -2,9 -6,7 -3,3 0,3 0,8 3,9 14 7 16 9 ESE 47 0 0,0
20.01.2019 21:00:00 -2,4 -7,5 -3,2 0,3 0,8 3,9 9 5 14 8 E 53 0 0,0
20.01.2019 20:00:00 -2,6 -8,5 -3,8 0,3 0,8 3,9 11 6 16 9 ESE 62 0 0,0
20.01.2019 19:00:00 -3,2 -8,4 -4,6 0,3 0,8 3,9 11 6 16 9 ESE 59 0 0,0
20.01.2019 18:00:00 -2,6 -9,5 -3,7 0,3 0,8 3,9 12 7 15 8 ESE 56 0 0,0
20.01.2019 17:00:00 -2,4 -9,6 -3,4 0,3 0,8 3,9 10 5 14 8 ESE 56 0 0,0
20.01.2019 16:00:00 -1,8 -7,1 -2,1 0,3 0,8 3,9 0 0 13 7 N 51 0 0,0
20.01.2019 15:00:00 -1,4 -8,2 -0,6 0,3 0,8 3,9 2 1 7 4 NE 46 1 0,0
20.01.2019 14:00:00 0,2 -8,5 0,5 0,3 0,8 3,9 0 0 9 5 N 43 0 0,0
20.01.2019 13:00:00 -0,5 -10,6 0,3 0,3 0,8 3,9 5 3 11 6 N 75 0 0,0
20.01.2019 12:00:00 0,2 -10,1 0,8 0,3 0,8 3,9 5 3 9 5 W 66 0 0,0
20.01.2019 11:00:00 0,0 -10,2 -0,8 0,3 0,8 3,9 5 3 9 5 SSW 69 0 0,0
20.01.2019 10:00:00 -1,0 -9,9 -2,5 0,3 0,8 3,9 6 3 13 7 SSW 60 8 0,0
20.01.2019 09:00:00 -2,1 -10,3 -4,2 0,3 0,8 3,9 9 5 14 8 WSW 75 2 0,0
20.01.2019 08:00:00 -3,5 -10,2 -7,9 0,3 0,8 3,9 8 4 14 7 SW 75 0 0,0
20.01.2019 07:00:00 -2,7 -10,5 -8,1 0,3 0,8 3,9 10 6 12 6 SW 67 0 0,0
20.01.2019 06:00:00 -2,4 -10,3 -7,6 0,3 0,8 3,9 10 5 12 6 SSW 66 0 0,0
20.01.2019 05:00:00 -2,4 -10,6 -8,1 0,3 0,8 3,9 8 4 12 6 S 75 0 0,0
20.01.2019 04:00:00 -2,4 -10,6 -7,2 0,3 0,8 3,9 6 3 11 6 S 75 0 0,0
20.01.2019 03:00:00 -2,2 -10,3 -7,9 0,3 0,8 3,9 8 4 12 6 S 75 0 0,0
20.01.2019 02:00:00 -3,0 -10,6 -9,0 0,3 0,8 3,9 11 6 13 7 S 75 0 0,0
20.01.2019 01:00:00 -3,7 -10,4 -8,3 0,3 0,8 3,9 8 4 13 7 S 63 0 0,0
20.01.2019 00:00:00 -4,2 -10,6 -7,8 0,3 0,8 3,9 7 4 14 8 SW 74 0 0,0
19.01.2019 23:00:00 -4,1 -10,2 -8,6 0,3 0,8 3,9 8 4 14 8 SSW 70 0 0,0
19.01.2019 22:00:00 -4,5 -10,3 -9,2 0,3 0,8 3,9 11 6 14 8 SSW 71 0 0,0
19.01.2019 21:00:00 -4,5 -10,1 -8,9 0,3 0,8 3,9 9 5 16 9 S 66 0 0,0
19.01.2019 20:00:00 -4,9 -11,8 -8,3 0,3 0,8 3,9 13 7 20 11 SE 75 0 0,0
19.01.2019 19:00:00 -5,1 -11,2 -7,3 0,3 0,8 3,9 16 9 19 10 SE 70 0 0,0
19.01.2019 18:00:00 -5,7 -10,0 -6,8 0,3 0,8 3,9 14 7 18 10 ESE 62 0 0,0
19.01.2019 17:00:00 -5,4 -10,3 -6,7 0,3 0,8 3,9 11 6 13 7 E 47 58 0,0
19.01.2019 16:00:00 -3,5 -9,9 -5,6 0,3 0,8 3,9 8 4 11 6 SSE 52 35 0,0
19.01.2019 15:00:00 -2,8 -9,3 -4,1 0,3 0,8 3,9 5 3 11 6 SSE 44 60 0,0
19.01.2019 14:00:00 -3,2 -10,6 -1,8 0,3 0,8 3,9 2 1 8 4 NNE 63 60 0,0
19.01.2019 13:00:00 -3,5 -10,6 -3,1 0,3 0,8 3,9 6 3 9 5 SSE 46 60 0,0
19.01.2019 12:00:00 -3,0 -11,6 -2,9 0,3 0,8 3,9 2 1 8 4 N 75 60 0,0
19.01.2019 11:00:00 -4,4 -10,4 -6,7 0,3 0,8 3,9 0 0 6 4 N 30 60 0,0
19.01.2019 10:00:00 -5,8 -11,0 -9,0 0,3 0,8 3,9 6 3 12 6 WSW 66 39 0,0
19.01.2019 09:00:00 -7,5 -11,0 -11,6 0,3 0,8 3,9 10 5 16 8 S 75 8 0,0
19.01.2019 08:00:00 -8,2 -10,6 -11,7 0,3 0,8 3,9 13 7 17 9 SSW 75 0 0,0
19.01.2019 07:00:00 -8,5 -9,6 -12,9 0,3 0,8 3,9 9 5 12 6 S 24 0 0,0
19.01.2019 06:00:00 -7,6 -9,0 -11,7 0,3 0,8 3,9 3 2 5 3 SW 51 0 0,0
19.01.2019 05:00:00 -7,9 -9,0 -11,4 0,3 0,8 3,9 3 2 13 7 SSE 30 0 0,0
19.01.2019 04:00:00 -7,9 -9,6 -9,6 0,3 0,8 3,9 9 5 18 10 ENE 46 0 0,0
19.01.2019 03:00:00 -7,2 -8,9 -8,1 0,3 0,8 3,9 14 7 28 15 ENE 38 0 0,0
19.01.2019 02:00:00 -7,3 -8,7 -8,0 0,3 0,8 3,9 22 12 31 17 ENE 30 0 0,0
19.01.2019 01:00:00 -7,0 -8,2 -7,5 0,3 0,8 3,9 21 11 32 17 ENE 25 0 0,0
19.01.2019 00:00:00 -6,8 -7,9 -7,4 0,3 0,8 3,9 19 11 29 16 ENE 22 0 0,0
18.01.2019 23:00:00 -6,4 -7,4 -7,0 0,3 0,8 3,9 19 10 31 17 ENE 19 0 0,0
18.01.2019 22:00:00 -6,2 -7,2 -6,9 0,3 0,8 3,9 17 9 32 17 E 21 0 0,0
18.01.2019 21:00:00 -5,8 -7,1 -6,6 0,3 0,8 3,9 22 12 30 16 ENE 31 0 0,0
18.01.2019 20:00:00 -5,3 -7,4 -6,0 0,3 0,8 3,9 18 10 27 15 ENE 40 0 0,0
18.01.2019 19:00:00 -5,0 -8,2 -5,9 0,3 0,8 3,9 16 9 23 12 ENE 52 0 0,0
18.01.2019 18:00:00 -4,9 -9,8 -6,4 0,3 0,8 3,9 13 7 18 10 NE 65 0 0,0
18.01.2019 17:00:00 -4,2 -9,0 -5,6 0,3 0,8 3,9 14 7 18 10 NE 74 30 0,0
18.01.2019 16:00:00 -4,1 -9,6 -5,4 0,3 0,8 3,9 11 6 17 9 NE 75 29 0,0
18.01.2019 15:00:00 -3,1 -9,5 -3,4 0,3 0,8 3,9 11 6 15 8 NE 63 44 0,0
18.01.2019 14:00:00 -3,1 -11,0 -4,4 0,3 0,8 3,9 6 3 11 6 NNE 75 38 0,0
18.01.2019 13:00:00 -2,6 -9,4 -4,3 0,3 0,8 3,9 7 4 11 6 SW 50 23 0,0
18.01.2019 12:00:00 -2,9 -9,1 -3,0 0,3 0,8 3,9 8 4 15 8 SSW 52 4 0,0
18.01.2019 11:00:00 -3,0 -8,0 -1,3 0,3 0,8 3,9 6 4 20 11 W 75 56 0,0
18.01.2019 10:00:00 -4,5 -7,4 -5,5 0,3 0,8 4,0 8 4 21 11 SW 54 1 0,0
18.01.2019 09:00:00 -4,6 -7,9 -5,0 0,3 0,8 4,0 13 7 28 15 WNW 70 0 0,0
18.01.2019 08:00:00 -4,7 -7,5 -5,0 0,3 0,8 4,0 16 9 31 17 W 53 0 0,0
18.01.2019 07:00:00 -4,5 -7,7 -4,8 0,3 0,8 4,0 18 10 41 22 WNW 49 0 0,0
18.01.2019 06:00:00 -4,3 -6,7 -4,4 0,3 0,8 4,0 19 11 40 21 WNW 52 0 0,0
18.01.2019 05:00:00 -4,0 -4,6 -4,0 0,3 0,8 4,0 17 9 37 20 W 12 0 0,4
18.01.2019 04:00:00 -3,4 -3,8 -3,3 0,3 0,8 4,0 22 12 47 25 W 0,9 0 0,2
18.01.2019 03:00:00 -2,5 -3,1 -2,5 0,3 0,8 4,0 26 14 64 34 WNW 0,5 0 0,2
18.01.2019 02:00:00 -1,3 -4,4 -1,7 0,3 0,8 4,0 44 24 74 40 WSW 68 0 0,0
18.01.2019 01:00:00 -1,6 -4,6 -2,7 0,3 0,8 4,0 46 25 70 38 WSW 56 0 0,0
18.01.2019 00:00:00 -1,2 -4,0 -2,1 0,3 0,8 4,0 27 15 59 32 W 67 0 0,0
17.01.2019 23:00:00 -0,9 -4,0 -1,7 0,3 0,8 4,0 37 20 59 32 W 61 0 0,0
17.01.2019 22:00:00 -0,7 -3,5 -1,0 0,3 0,8 4,0 42 23 73 39 WSW 63 0 0,0
17.01.2019 21:00:00 -0,9 -1,7 -1,5 0,3 0,8 4,0 41 22 77 41 WSW 38 0 0,0
17.01.2019 20:00:00 -0,1 -1,7 -0,5 0,3 0,8 4,0 44 24 70 38 WSW 68 0 0,0
17.01.2019 19:00:00 0,1 -1,7 -0,3 0,3 0,8 4,0 41 22 75 41 WSW 34 0 0,0
17.01.2019 18:00:00 -0,2 -0,9 -0,4 0,3 0,8 4,0 45 24 71 38 WSW 21 0 0,0
17.01.2019 17:00:00 0,2 -1,1 0,0 0,3 0,8 4,0 42 23 61 33 WSW 4,4 0 0,0
17.01.2019 16:00:00 0,1 -0,6 0,1 0,3 0,8 4,0 32 18 69 37 SW 7 0 0,0
17.01.2019 15:00:00 1,5 -0,2 1,2 0,3 0,8 4,0 31 17 71 38 W 37 4 0,0
17.01.2019 14:00:00 3,6 -0,8 3,2 0,3 0,8 4,0 41 22 71 38 WSW 58 53 0,0
17.01.2019 13:00:00 5,3 -2,7 4,9 0,3 0,8 4,0 23 12 44 24 WSW 55 46 0,0
17.01.2019 12:00:00 5,1 -3,7 4,4 0,3 0,8 4,0 18 10 36 20 WSW 56 44 0,0
17.01.2019 11:00:00 4,0 -4,0 2,5 0,3 0,8 4,0 26 14 42 23 WSW 75 20 0,0
17.01.2019 10:00:00 3,9 -4,2 2,6 0,3 0,8 4,0 25 13 49 27 SW 55 50 0,0
17.01.2019 09:00:00 2,6 -3,5 1,0 0,3 0,8 4,0 39 21 57 31 SW 75 42 0,0
17.01.2019 08:00:00 1,4 -3,3 -1,1 0,3 0,8 4,0 36 19 53 29 SW 74 0 0,0
17.01.2019 07:00:00 1,5 -2,0 -0,5 0,3 0,8 4,0 35 19 63 34 WSW 52 0 0,0
17.01.2019 06:00:00 1,7 -1,8 -0,1 0,3 0,8 4,0 40 22 67 36 WSW 55 0 0,0
17.01.2019 05:00:00 2,4 -2,8 0,8 0,3 0,8 4,0 39 21 72 39 WSW 52 0 0,0
17.01.2019 04:00:00 2,4 -4,1 0,8 0,3 0,8 4,0 40 22 73 39 WSW 75 0 0,0
17.01.2019 03:00:00 3,6 -5,0 1,3 0,3 0,8 4,0 45 25 71 38 WSW 75 0 0,0
17.01.2019 02:00:00 3,6 -5,0 0,9 0,3 0,8 4,0 37 20 59 32 WSW 75 0 0,0
17.01.2019 01:00:00 3,2 -5,0 1,3 0,3 0,8 4,0 33 18 61 33 WSW 70 0 0,0
17.01.2019 00:00:00 5,4 -6,6 3,0 0,3 0,8 4,0 39 21 57 31 WSW 72 0 0,0
16.01.2019 23:00:00 3,4 -5,1 0,9 0,3 0,8 4,0 36 19 51 28 SW 75 0 0,0
16.01.2019 22:00:00 5,7 -7,1 2,9 0,3 0,8 4,0 38 21 54 29 WSW 71 0 0,0
16.01.2019 21:00:00 4,3 -6,3 1,4 0,3 0,8 4,0 36 19 50 27 WSW 66 0 0,0
16.01.2019 20:00:00 4,2 -6,1 1,1 0,3 0,8 4,0 35 19 48 26 WSW 75 0 0,0
16.01.2019 19:00:00 4,7 -5,7 1,3 0,3 0,8 4,0 34 18 46 25 WSW 75 0 0,0
16.01.2019 18:00:00 3,6 -4,5 0,2 0,3 0,8 4,0 27 15 48 26 WSW 75 0 0,0
16.01.2019 17:00:00 3,1 -4,3 -0,5 0,3 0,8 4,0 22 12 38 20 SW 75 49 0,0
16.01.2019 16:00:00 4,8 -5,0 2,4 0,3 0,8 4,0 24 13 38 20 WSW 75 60 0,0
16.01.2019 15:00:00 4,4 -4,5 2,2 0,3 0,8 4,0 23 12 36 20 SW 63 60 0,0
16.01.2019 14:00:00 4,2 -5,0 2,3 0,3 0,8 4,0 22 12 35 19 SW 75 60 0,0
16.01.2019 13:00:00 3,1 -4,7 1,5 0,3 0,8 4,0 21 11 31 17 SW 75 60 0,0
16.01.2019 12:00:00 3,7 -5,0 1,8 0,3 0,8 4,0 9 5 16 9 SSW 58 60 0,0
16.01.2019 11:00:00 2,9 -5,7 0,3 0,3 0,8 4,0 9 5 13 7 SSW 75 60 0,0
16.01.2019 10:00:00 2,3 -6,5 -1,9 0,3 0,8 4,0 6 3 11 6 S 62 60 0,0
16.01.2019 09:00:00 1,1 -6,5 -4,3 0,3 0,8 4,0 7 4 16 9 SSE 60 34 0,0
16.01.2019 08:00:00 -3,2 -5,8 -8,4 0,3 0,8 4,0 12 7 18 10 SE 70 0 0,0
16.01.2019 07:00:00 -3,5 -5,9 -6,3 0,3 0,8 4,0 11 6 16 9 SW 61 0 0,0
16.01.2019 06:00:00 -3,3 -5,7 -5,9 0,3 0,8 4,0 13 7 19 10 SW 64 0 0,0
16.01.2019 05:00:00 -3,7 -5,5 -5,8 0,3 0,8 4,0 14 8 21 11 SW 49 0 0,0
16.01.2019 04:00:00 -3,6 -5,2 -5,6 0,3 0,8 4,0 16 9 25 13 SW 45 0 0,0
16.01.2019 03:00:00 -3,7 -5,4 -5,5 0,3 0,8 4,0 16 9 27 15 SW 45 0 0,0
16.01.2019 02:00:00 -3,5 -4,7 -5,2 0,3 0,8 4,0 17 9 26 14 SW 34 0 0,0
16.01.2019 01:00:00 -2,9 -4,3 -4,1 0,3 0,8 4,1 19 10 26 14 WSW 30 0 0,0
16.01.2019 00:00:00 -2,8 -4,4 -4,2 0,3 0,8 4,1 15 8 24 13 SW 35 0 0,0
15.01.2019 23:00:00 -2,5 -4,2 -3,8 0,3 0,8 4,1 18 10 34 18 WSW 37 0 0,0
15.01.2019 22:00:00 -2,1 -3,9 -3,0 0,3 0,8 4,1 22 12 34 18 WSW 30 0 0,0
15.01.2019 21:00:00 -1,9 -4,0 -2,7 0,3 0,8 4,1 25 13 40 22 WSW 40 0 0,0
15.01.2019 20:00:00 -1,5 -3,6 -1,9 0,3 0,8 4,1 26 14 48 26 WSW 36 0 0,0
15.01.2019 19:00:00 -1,3 -3,6 -1,9 0,3 0,8 4,1 23 13 45 24 W 35 0 0,0
15.01.2019 18:00:00 -1,2 -3,7 -1,4 0,3 0,8 4,1 24 13 50 27 W 41 0 0,0
15.01.2019 17:00:00 -0,9 -4,1 -1,3 0,3 0,8 4,1 27 15 48 26 W 50 17 0,0

tt = Température de l'air
td = dewpoint
tt 5cm = Température de l'air 5cm
tt -5cm = Température de l'air -5cm
tt -20cm = Température de l'air -20cm
tt -100cm = Température de l'air -100cm
ff = Vitesse du vent
fx = gusts
dd = Direction du vent
vv = visibility
sd = Ensoleillement
rr = Quantités de précipitations

stations d'obs. à proximité